Lequire, OK (74943)

12:09 PM CDT on April 27, 2015 (GMT -0500)
Stigler | | Change Station
CLOSE
Current Station
Airport
Location: Stigler,
Elevation: 600 ft
Nearby Weather Stations

Elev 600 ft 35.29 °N, 95.09 °W | Updated 14 minutes ago

Clear
Clear
63 °F
Feels Like 63 °F
N
16
Wind Variable Wind from East
Gusts 28 mph

Today
High -- | Low -- °F
--% Chance of Precip.
Yesterday
High -- | Low -- °F
Precip. -- in
6:34 AM 8:02 PM
Waxing Gibbous, 66% visible
Pressure 29.91 in
Visibility 10.0 miles
Clouds Few 11000 ft
Dew Point 39 °F
Humidity 42%
Rainfall 0.32 in
Snow Depth Not available.
UV 9 out of 12
Pollen 10.10 out of 12
Air Quality Not available.
Flu Activity Local Activity
METAR KGZL 271655Z AUTO 10014G24KT 10SM FEW110 17/04 A2991 RMK AO2

More Conditions Fewer Conditions

Pressure 29.91 in
Visibility 10.0 miles
Clouds Few 11000 ft
Dew Point 39 °F
Humidity 42%
Rainfall 0.32 in
Snow Depth Not available.
UV 9 out of 12
Pollen 10.10 out of 12
Air Quality Not available.
Flu Activity Local Activity
METAR KGZL 271655Z AUTO 10014G24KT 10SM FEW110 17/04 A2991 RMK AO2

More Conditions Fewer Conditions

Nowcast | as of 10:59 am CDT on April 27, 2015

At 10:55 am... National Weather Service radars indicated that most of the light rain showers had ended across eastern Oklahoma and northwest Arkansas. Additional rain showers however, were developing while moving north at around 25 mph. Through 1:00 PM... light rain showers are expected to continue developing across south central Oklahoma and eventually begin generating over the southeast part of the state. Persistent eastward shifting of low pressure... churning in the Texas Panhandle... is expected to increase the aerial coverage and intensity of rain showers across central and eastern Oklahoma later this afternoon and tonight.

×

10-Day Weather Forecast

Almanac

Astronomy

Apr. 27, 2015 Rise Set
Actual Time
Civil Twilight
Nautical Twilight
Astronomical Twilight
Moon
Length of Visible Light
Length of Day
Tomorrow will be .
, % of the Moon is Illuminated

Today's Extremes

State Highs State Lows

Community

WunderPhotos

Upload Photos

1,817,341 photos uploaded!

WunderBlogs® & News

Nearby

Air Quality

  Air Quality AQ Index Pollutant
Not available.

Snow Depth

Station Depth Elevation

Earthquake Activity

City Distance Mag. Time & Date
Minimum magnitude displayed is 2.5.

Coastal Water Temperatures

Place Temperature

Stations

Nearby Weather Stations

Station Location Temp. Windchill Dew Point Humidity Wind Precip. Elev Updated Type